createdAt,value
2022-12-22T00:02:38.745Z,1.30
2022-12-22T00:05:45.810Z,1.27
2022-12-22T00:08:51.898Z,1.43
2022-12-22T00:11:58.488Z,1.27
2022-12-22T00:15:05.698Z,1.70
2022-12-22T00:18:11.793Z,1.73
2022-12-22T00:21:18.483Z,2.17
2022-12-22T00:24:25.357Z,1.97
2022-12-22T00:27:34.109Z,2.00
2022-12-22T00:30:40.690Z,1.80
2022-12-22T00:33:47.443Z,2.13
2022-12-22T00:36:53.554Z,1.93
2022-12-22T00:40:00.095Z,2.20
2022-12-22T00:43:06.578Z,1.90
2022-12-22T00:46:13.087Z,2.00
2022-12-22T00:49:19.639Z,2.00
2022-12-22T00:52:26.222Z,2.53
2022-12-22T00:55:33.788Z,2.33
2022-12-22T00:58:39.827Z,2.10
2022-12-22T01:01:46.593Z,2.10
2022-12-22T01:04:53.031Z,2.17
2022-12-22T01:08:00.296Z,2.00
2022-12-22T01:11:07.015Z,2.00
2022-12-22T01:14:13.731Z,2.00
2022-12-22T01:17:20.756Z,2.07
2022-12-22T01:20:27.125Z,2.00
2022-12-22T01:23:33.702Z,1.90
2022-12-22T01:26:40.168Z,1.90
2022-12-22T01:29:46.809Z,1.73
2022-12-22T01:32:53.530Z,1.53
2022-12-22T01:36:00.287Z,1.50
2022-12-22T01:39:06.183Z,1.90
2022-12-22T01:42:12.570Z,1.73
2022-12-22T01:45:21.634Z,1.77
2022-12-22T01:48:32.625Z,1.67
2022-12-22T01:51:41.362Z,1.50
2022-12-22T01:54:47.261Z,1.80
2022-12-22T01:57:54.035Z,1.70
2022-12-22T02:01:01.247Z,1.73
2022-12-22T02:04:07.868Z,1.50
2022-12-22T02:07:17.389Z,1.50
2022-12-22T02:10:46.331Z,1.40
2022-12-22T02:14:11.648Z,1.73
2022-12-22T02:17:33.568Z,1.43
2022-12-22T02:20:52.327Z,1.97
2022-12-22T02:24:10.638Z,1.80
2022-12-22T02:27:18.576Z,1.43
2022-12-22T02:30:28.282Z,1.50
2022-12-22T02:33:34.283Z,1.77
2022-12-22T02:36:40.676Z,1.30
2022-12-22T02:39:52.801Z,1.60
2022-12-22T02:43:00.365Z,1.50
2022-12-22T02:46:15.971Z,1.93
2022-12-22T02:49:42.503Z,1.60
2022-12-22T02:52:51.553Z,1.20
2022-12-22T02:55:57.676Z,1.60
2022-12-22T02:59:04.249Z,1.50
2022-12-22T03:02:10.475Z,1.10
2022-12-22T03:05:16.783Z,1.33
2022-12-22T03:08:22.934Z,1.10
2022-12-22T03:11:29.357Z,1.10
2022-12-22T03:14:35.326Z,1.20
2022-12-22T03:17:42.524Z,0.93
2022-12-22T03:20:48.567Z,1.27
2022-12-22T03:23:55.596Z,1.37
2022-12-22T03:26:43.037Z,1.00
2022-12-22T03:29:30.998Z,1.13
2022-12-22T03:32:18.412Z,0.80
2022-12-22T03:35:06.641Z,1.03
2022-12-22T03:37:54.067Z,1.00
2022-12-22T03:40:44.424Z,1.10
2022-12-22T03:43:50.855Z,1.00
2022-12-22T03:46:38.683Z,1.33
2022-12-22T03:49:26.306Z,1.10
2022-12-22T03:52:14.227Z,1.00
2022-12-22T03:55:01.669Z,1.00
2022-12-22T03:57:49.553Z,1.00
2022-12-22T04:00:37.001Z,1.23
2022-12-22T04:03:24.490Z,0.90
2022-12-22T04:06:11.939Z,1.10
2022-12-22T04:08:59.183Z,1.10
2022-12-22T04:12:05.548Z,1.50
2022-12-22T04:14:53.475Z,1.00
2022-12-22T04:17:41.415Z,1.20
2022-12-22T04:20:29.636Z,1.10
2022-12-22T04:23:17.511Z,1.10
2022-12-22T04:26:05.495Z,0.93
2022-12-22T04:28:53.681Z,1.00
2022-12-22T04:31:41.739Z,1.00
2022-12-22T04:34:29.528Z,0.80
2022-12-22T04:37:17.873Z,0.93
2022-12-22T04:40:05.693Z,0.90
2022-12-22T04:42:53.617Z,0.87
2022-12-22T04:45:41.552Z,1.83
2022-12-22T04:48:29.821Z,0.70
2022-12-22T04:51:17.805Z,0.80
2022-12-22T04:54:05.252Z,0.70
2022-12-22T04:56:53.866Z,0.80
2022-12-22T04:59:41.290Z,1.10
2022-12-22T05:02:29.241Z,0.77
2022-12-22T05:05:16.691Z,0.60
2022-12-22T05:08:05.280Z,0.90
2022-12-22T05:10:52.723Z,0.50
2022-12-22T05:13:40.209Z,0.70
2022-12-22T05:16:28.191Z,0.70
2022-12-22T05:19:15.661Z,0.70
2022-12-22T05:22:03.572Z,0.70
2022-12-22T05:24:51.543Z,0.73
2022-12-22T05:27:39.081Z,0.53
2022-12-22T05:30:26.636Z,0.60
2022-12-22T05:33:14.537Z,0.70
2022-12-22T05:36:01.968Z,0.67
2022-12-22T05:38:49.920Z,0.70
2022-12-22T05:41:37.352Z,0.60
2022-12-22T05:44:25.283Z,0.70
2022-12-22T05:47:12.721Z,0.60
2022-12-22T05:50:00.710Z,0.57
2022-12-22T05:52:48.519Z,0.60
2022-12-22T05:55:36.182Z,0.63
2022-12-22T05:58:23.659Z,0.70
2022-12-22T06:01:11.587Z,0.60
2022-12-22T06:04:00.622Z,0.73
2022-12-22T06:06:48.672Z,0.60
2022-12-22T06:09:36.126Z,0.53
2022-12-22T06:12:24.047Z,0.60
2022-12-22T06:15:12.352Z,0.70
2022-12-22T06:18:00.280Z,0.57
2022-12-22T06:20:47.874Z,0.63
2022-12-22T06:23:35.818Z,0.63
2022-12-22T06:26:23.243Z,0.70
2022-12-22T06:29:11.193Z,0.53
2022-12-22T06:31:58.640Z,0.50
2022-12-22T06:34:46.434Z,0.60
2022-12-22T06:37:34.340Z,0.63
2022-12-22T06:40:21.777Z,0.83
2022-12-22T06:43:10.667Z,0.60
2022-12-22T06:45:58.450Z,0.90
2022-12-22T06:48:46.343Z,0.70
2022-12-22T06:51:33.824Z,0.70
2022-12-22T06:54:26.146Z,0.60
2022-12-22T06:57:14.556Z,0.70
2022-12-22T07:00:01.988Z,0.80
2022-12-22T07:02:50.140Z,0.80
2022-12-22T07:05:38.278Z,0.63
2022-12-22T07:08:25.800Z,0.60
2022-12-22T07:11:13.343Z,0.70
2022-12-22T07:14:00.745Z,0.70
2022-12-22T07:16:48.892Z,0.70
2022-12-22T07:19:36.756Z,0.87
2022-12-22T07:22:29.965Z,0.60
2022-12-22T07:25:18.307Z,0.60
2022-12-22T07:28:07.660Z,0.90
2022-12-22T07:30:56.133Z,0.80
2022-12-22T07:33:43.723Z,0.60
2022-12-22T07:36:31.626Z,0.67
2022-12-22T07:39:19.094Z,0.60
2022-12-22T07:42:25.594Z,0.60
2022-12-22T07:45:17.083Z,0.80
2022-12-22T07:48:24.730Z,0.80
2022-12-22T07:51:12.156Z,0.70
2022-12-22T07:54:01.324Z,0.70
2022-12-22T07:56:48.735Z,0.87
2022-12-22T07:59:36.178Z,1.00
2022-12-22T08:02:24.265Z,0.70
2022-12-22T08:05:11.660Z,0.83
2022-12-22T08:07:59.052Z,0.67
2022-12-22T08:10:46.474Z,0.70
2022-12-22T08:13:34.221Z,2.00
2022-12-22T08:16:22.365Z,0.80
2022-12-22T08:19:10.180Z,0.80
2022-12-22T08:21:57.663Z,0.90
2022-12-22T08:24:45.113Z,0.70
2022-12-22T08:27:48.172Z,0.70
2022-12-22T08:30:36.351Z,0.70
2022-12-22T08:33:23.768Z,0.73
2022-12-22T08:36:12.216Z,0.73
2022-12-22T08:39:00.311Z,0.73
2022-12-22T08:41:51.338Z,1.27
2022-12-22T08:44:41.933Z,0.83
2022-12-22T08:47:29.930Z,0.80
2022-12-22T08:50:17.565Z,0.83
2022-12-22T08:53:06.485Z,0.70
2022-12-22T08:55:54.674Z,0.70
2022-12-22T08:58:42.777Z,0.93
2022-12-22T09:01:30.376Z,0.90
2022-12-22T09:04:19.435Z,0.70
2022-12-22T09:07:06.828Z,0.87
2022-12-22T09:09:55.294Z,0.83
2022-12-22T09:12:42.759Z,0.73
2022-12-22T09:15:30.698Z,1.10
2022-12-22T09:18:18.124Z,1.20
2022-12-22T09:21:05.597Z,0.83
2022-12-22T09:23:53.756Z,0.70
2022-12-22T09:26:41.228Z,0.87
2022-12-22T09:29:28.918Z,0.90
2022-12-22T09:32:16.362Z,1.10
2022-12-22T09:35:04.314Z,0.80
2022-12-22T09:37:51.733Z,1.00
2022-12-22T09:40:39.535Z,1.00
2022-12-22T09:43:29.074Z,0.80
2022-12-22T09:46:22.677Z,0.73
2022-12-22T09:49:13.727Z,0.70
2022-12-22T09:52:03.040Z,1.03
2022-12-22T09:54:51.352Z,0.67
2022-12-22T09:57:39.251Z,0.70
2022-12-22T10:00:27.655Z,0.80
2022-12-22T10:03:28.213Z,0.73
2022-12-22T10:06:19.441Z,0.70
2022-12-22T10:09:46.355Z,0.87
2022-12-22T10:12:25.188Z,1.13
2022-12-22T10:15:18.310Z,1.30
2022-12-22T10:18:15.922Z,0.70
2022-12-22T10:21:14.056Z,0.80
2022-12-22T10:24:01.438Z,0.83
2022-12-22T10:26:51.863Z,1.10
2022-12-22T10:29:39.513Z,0.80
2022-12-22T10:32:27.030Z,0.80
2022-12-22T10:35:14.437Z,0.67
2022-12-22T10:38:21.106Z,1.00
2022-12-22T10:41:15.013Z,0.70
2022-12-22T10:44:04.148Z,0.80
2022-12-22T10:46:59.037Z,1.00
2022-12-22T10:52:38.279Z,0.87
2022-12-22T10:55:27.344Z,0.93
2022-12-22T10:58:19.134Z,1.13
2022-12-22T11:01:07.134Z,0.97
2022-12-22T11:03:54.845Z,1.20
2022-12-22T11:06:46.125Z,0.90
2022-12-22T11:09:35.386Z,1.00
2022-12-22T11:12:26.305Z,1.60
2022-12-22T11:15:23.744Z,1.10
2022-12-22T11:18:20.459Z,0.90
2022-12-22T11:21:24.323Z,1.00
2022-12-22T11:24:12.600Z,1.73
2022-12-22T11:27:09.271Z,1.20
2022-12-22T11:30:00.259Z,0.97
2022-12-22T11:32:53.783Z,1.00
2022-12-22T11:35:44.816Z,0.80
2022-12-22T11:38:48.295Z,0.90
2022-12-22T11:41:43.851Z,1.20
2022-12-22T11:44:51.151Z,1.13
2022-12-22T11:47:52.422Z,1.00
2022-12-22T11:51:01.568Z,0.97
2022-12-22T11:53:53.046Z,1.47
2022-12-22T11:56:41.783Z,2.10
2022-12-22T11:59:47.858Z,1.30
2022-12-22T12:02:51.005Z,1.93
2022-12-22T12:05:44.783Z,1.80
2022-12-22T12:08:38.337Z,1.03
2022-12-22T12:11:40.171Z,1.20
2022-12-22T12:14:30.656Z,1.07
2022-12-22T12:17:24.260Z,1.60
2022-12-22T12:20:18.394Z,1.53
2022-12-22T12:23:24.852Z,1.30
2022-12-22T12:26:18.702Z,1.30
2022-12-22T12:29:16.262Z,1.30
2022-12-22T12:32:07.259Z,1.37
2022-12-22T12:34:58.570Z,1.00
2022-12-22T12:37:47.097Z,1.40
2022-12-22T12:40:53.278Z,1.80
2022-12-22T12:43:42.204Z,1.07
2022-12-22T12:46:48.414Z,1.13
2022-12-22T12:49:36.087Z,0.97
2022-12-22T12:52:52.875Z,1.37
2022-12-22T12:55:40.725Z,1.10
2022-12-22T12:58:40.075Z,1.50
2022-12-22T13:01:28.022Z,1.23
2022-12-22T13:04:35.907Z,1.80
2022-12-22T13:07:41.779Z,1.13
2022-12-22T13:10:31.512Z,1.20
2022-12-22T13:13:22.048Z,1.43
2022-12-22T13:16:12.665Z,1.57
2022-12-22T13:19:00.179Z,1.40
2022-12-22T13:21:55.279Z,1.00
2022-12-22T13:24:48.870Z,1.30
2022-12-22T13:27:37.167Z,1.23
2022-12-22T13:30:25.417Z,1.10
2022-12-22T13:33:13.796Z,0.90
2022-12-22T13:36:01.916Z,1.23
2022-12-22T13:39:04.707Z,1.07
2022-12-22T13:41:52.432Z,1.40
2022-12-22T13:44:40.875Z,1.37
2022-12-22T13:47:28.708Z,1.40
2022-12-22T13:50:20.428Z,1.47
2022-12-22T13:53:09.611Z,1.53
2022-12-22T13:55:58.213Z,1.40
2022-12-22T13:58:47.475Z,1.33
2022-12-22T14:01:36.138Z,1.60
2022-12-22T14:04:23.599Z,1.33
2022-12-22T14:07:21.053Z,1.87
2022-12-22T14:10:08.774Z,1.83
2022-12-22T14:12:56.336Z,1.63
2022-12-22T14:15:46.958Z,1.67
2022-12-22T14:18:34.495Z,1.00
2022-12-22T14:21:22.020Z,1.63
2022-12-22T14:24:19.928Z,1.67
2022-12-22T14:27:07.449Z,1.40
2022-12-22T14:29:55.095Z,1.60
2022-12-22T14:32:46.752Z,1.77
2022-12-22T14:35:37.989Z,1.33
2022-12-22T14:38:27.276Z,2.50
2022-12-22T14:41:44.222Z,1.77
2022-12-22T14:44:45.696Z,1.53
2022-12-22T14:47:36.802Z,2.17
2022-12-22T14:50:25.842Z,1.50
2022-12-22T14:53:13.586Z,1.90
2022-12-22T14:56:01.768Z,1.30
2022-12-22T14:58:50.447Z,1.80
2022-12-22T15:01:38.269Z,2.30
2022-12-22T15:04:25.688Z,2.40
2022-12-22T15:07:54.216Z,1.83
2022-12-22T15:10:26.628Z,2.10
2022-12-22T15:13:19.195Z,1.37
2022-12-22T15:16:06.763Z,1.60
2022-12-22T15:18:54.486Z,1.70
2022-12-22T15:21:41.831Z,1.40
2022-12-22T15:24:29.444Z,1.60
2022-12-22T15:27:16.981Z,1.50
2022-12-22T15:34:03.840Z,1.90
2022-12-22T15:36:51.449Z,1.83
2022-12-22T15:39:38.799Z,1.30
2022-12-22T15:42:26.127Z,1.73
2022-12-22T15:45:14.097Z,1.30
2022-12-22T15:48:01.397Z,1.77
2022-12-22T15:50:49.220Z,1.30
2022-12-22T15:53:37.617Z,1.50
2022-12-22T15:56:26.735Z,1.40
2022-12-22T15:59:18.561Z,1.17
2022-12-22T16:02:10.748Z,1.30
2022-12-22T16:04:58.328Z,1.20
2022-12-22T16:07:45.887Z,1.00
2022-12-22T16:10:34.960Z,1.57
2022-12-22T16:13:28.935Z,1.33
2022-12-22T16:16:17.578Z,1.10
2022-12-22T16:19:05.082Z,1.73
2022-12-22T16:21:53.489Z,1.47
2022-12-22T16:24:41.750Z,1.30
2022-12-22T16:27:29.701Z,1.00
2022-12-22T16:30:19.199Z,1.43
2022-12-22T16:33:06.489Z,1.17
2022-12-22T16:35:53.829Z,0.93
2022-12-22T16:38:41.477Z,1.10
2022-12-22T16:41:29.695Z,1.40
2022-12-22T16:44:20.698Z,1.40
2022-12-22T16:47:10.742Z,1.30
2022-12-22T16:49:58.090Z,1.30
2022-12-22T16:52:46.122Z,1.50
2022-12-22T16:55:36.246Z,1.70
2022-12-22T16:58:24.104Z,1.37
2022-12-22T17:01:20.571Z,1.30
2022-12-22T17:04:10.094Z,1.77
2022-12-22T17:06:59.416Z,1.63
2022-12-22T17:09:52.871Z,1.73
2022-12-22T17:12:40.219Z,1.37
2022-12-22T17:15:27.756Z,1.60
2022-12-22T17:18:19.185Z,1.43
2022-12-22T17:21:07.099Z,1.37
2022-12-22T17:23:55.589Z,1.60
2022-12-22T17:26:43.249Z,1.43
2022-12-22T17:29:30.625Z,1.20
2022-12-22T17:32:19.618Z,1.30
2022-12-22T17:35:07.487Z,1.03
2022-12-22T17:37:55.056Z,1.50
2022-12-22T17:40:43.429Z,1.60
2022-12-22T17:43:30.770Z,1.57
2022-12-22T17:46:19.542Z,1.17
2022-12-22T17:49:06.811Z,1.27
2022-12-22T17:51:54.672Z,0.80
2022-12-22T17:54:42.509Z,1.30
2022-12-22T17:57:31.799Z,1.47
2022-12-22T18:00:22.833Z,1.87
2022-12-22T18:03:14.204Z,1.73
2022-12-22T18:06:01.999Z,1.60
2022-12-22T18:08:49.789Z,1.47
2022-12-22T18:11:45.449Z,1.40
2022-12-22T18:14:33.365Z,1.60
2022-12-22T18:17:28.610Z,1.30
2022-12-22T18:20:25.153Z,1.87
2022-12-22T18:23:16.894Z,1.60
2022-12-22T18:26:05.710Z,1.60
2022-12-22T18:28:53.614Z,1.47
2022-12-22T18:31:42.198Z,2.00
2022-12-22T18:34:29.624Z,1.60
2022-12-22T18:37:17.825Z,1.30
2022-12-22T18:40:05.618Z,1.37
2022-12-22T18:42:53.778Z,1.73
2022-12-22T18:45:41.224Z,1.60
2022-12-22T18:48:29.094Z,1.53
2022-12-22T18:51:21.754Z,1.33
2022-12-22T18:54:21.217Z,1.20
2022-12-22T18:57:15.256Z,1.90
2022-12-22T19:00:05.612Z,2.40
2022-12-22T19:03:00.949Z,2.70
2022-12-22T19:05:49.368Z,1.90
2022-12-22T19:08:43.458Z,2.53
2022-12-22T19:11:33.190Z,2.37
2022-12-22T19:14:21.849Z,2.03
2022-12-22T19:17:17.349Z,2.13
2022-12-22T19:20:06.053Z,1.73
2022-12-22T19:22:53.342Z,1.33
2022-12-22T19:25:41.381Z,1.60
2022-12-22T19:28:39.287Z,1.77
2022-12-22T19:31:28.292Z,1.47
2022-12-22T19:34:17.377Z,1.47
2022-12-22T19:37:04.721Z,1.53
2022-12-22T19:39:51.990Z,1.70
2022-12-22T19:42:41.235Z,1.53
2022-12-22T19:45:36.802Z,1.30
2022-12-22T19:48:26.612Z,0.97
2022-12-22T19:51:17.640Z,1.40
2022-12-22T19:54:05.392Z,1.40
2022-12-22T19:56:54.028Z,1.30
2022-12-22T19:59:43.764Z,1.50
2022-12-22T20:02:33.538Z,1.77
2022-12-22T20:05:24.055Z,1.70
2022-12-22T20:08:11.313Z,1.27
2022-12-22T20:11:00.453Z,1.67
2022-12-22T20:13:48.242Z,2.17
2022-12-22T20:16:36.080Z,1.47
2022-12-22T20:19:23.533Z,1.83
2022-12-22T20:22:15.226Z,1.27
2022-12-22T20:25:02.540Z,1.37
2022-12-22T20:27:50.375Z,1.40
2022-12-22T20:30:37.763Z,1.80
2022-12-22T20:33:27.083Z,1.30
2022-12-22T20:36:17.508Z,1.27
2022-12-22T20:39:10.867Z,1.40
2022-12-22T20:41:58.247Z,1.30
2022-12-22T20:45:02.470Z,1.97
2022-12-22T20:47:51.885Z,1.23
2022-12-22T20:50:39.641Z,1.50
2022-12-22T20:53:27.335Z,1.50
2022-12-22T20:56:20.311Z,1.13
2022-12-22T20:59:12.963Z,1.20
2022-12-22T21:02:00.828Z,1.40
2022-12-22T21:04:49.002Z,1.63
2022-12-22T21:07:36.233Z,1.50
2022-12-22T21:10:24.870Z,1.20
2022-12-22T21:13:13.077Z,1.27
2022-12-22T21:16:00.491Z,1.50
2022-12-22T21:18:48.079Z,1.20
2022-12-22T21:21:35.428Z,1.30
2022-12-22T21:24:22.789Z,1.57
2022-12-22T21:27:15.862Z,1.70
2022-12-22T21:30:03.107Z,1.37
2022-12-22T21:32:51.584Z,1.10
2022-12-22T21:35:39.809Z,1.30
2022-12-22T21:38:28.952Z,1.00
2022-12-22T21:41:16.356Z,1.43
2022-12-22T21:44:04.007Z,1.10
2022-12-22T21:46:51.622Z,1.13
2022-12-22T21:49:38.938Z,1.00
2022-12-22T21:52:26.698Z,1.27
2022-12-22T21:55:14.081Z,1.30
2022-12-22T21:58:01.996Z,1.33
2022-12-22T22:00:50.537Z,1.23
2022-12-22T22:03:37.863Z,1.03
2022-12-22T22:06:25.287Z,1.00
2022-12-22T22:09:13.452Z,1.00
2022-12-22T22:12:26.408Z,0.80
2022-12-22T22:15:16.240Z,1.00
2022-12-22T22:18:07.242Z,0.97
2022-12-22T22:20:55.164Z,1.00
2022-12-22T22:23:43.114Z,1.30
2022-12-22T22:26:30.412Z,1.00
2022-12-22T22:29:18.377Z,0.90
2022-12-22T22:32:05.754Z,0.90
2022-12-22T22:34:53.807Z,1.07
2022-12-22T22:37:41.263Z,0.97
2022-12-22T22:40:29.206Z,0.90
2022-12-22T22:43:16.612Z,0.90
2022-12-22T22:46:04.659Z,1.00
2022-12-22T22:48:52.034Z,0.80
2022-12-22T22:51:39.991Z,1.47
2022-12-22T22:54:27.513Z,1.00
2022-12-22T22:57:14.994Z,0.80
2022-12-22T23:00:02.231Z,0.70
2022-12-22T23:02:50.479Z,0.80
2022-12-22T23:05:37.936Z,0.80
2022-12-22T23:08:25.384Z,0.70
2022-12-22T23:11:16.217Z,0.80
2022-12-22T23:14:03.622Z,1.17
2022-12-22T23:16:51.926Z,0.90
2022-12-22T23:19:39.895Z,0.70
2022-12-22T23:22:27.934Z,0.80
2022-12-22T23:25:15.859Z,0.70
2022-12-22T23:28:03.244Z,0.80
2022-12-22T23:30:51.499Z,0.70
2022-12-22T23:33:38.818Z,0.60
2022-12-22T23:36:26.056Z,0.60
2022-12-22T23:39:14.639Z,0.60
2022-12-22T23:42:02.061Z,0.70
2022-12-22T23:44:49.894Z,0.80
2022-12-22T23:47:37.690Z,0.90
2022-12-22T23:50:25.905Z,0.60
2022-12-22T23:53:13.685Z,0.80
2022-12-22T23:56:01.139Z,1.00
2022-12-22T23:58:54.625Z,0.90
